Vancouver, WA

11:33 AM PDT del 27 Aprile 2015 (GMT -0700)
Cascade Park West | | Change Station
CLOSE
Current Station
Stazione meteo personale
Location: Vancouver, WA
Altitudine: 302 ft
Stazioni meteo nelle vicinanze

Alt. 302 ft 45.62 °N, 122.54 °W | Updated 5 seconds ago

Sereno
Sereno
69.4 °F
Sembra 69.4 °F
N
0.0
Vento Variabile Vento da Nord
Gusts 0.0 mph

Oggi
Massima -- | Minima -- °F
--% Possibilità di precip.
Ieri
Massima -- | Minima -- °F
Precip. -- in
6:04 AM 8:11 PM
Gobba a ponente, 67% visible
Pressione 30.20 in
Visibilità 10.0 miglia
Nuvole Alcuni 1200 ft
Alcuni 25000 ft
Punto di rugiada 45 °F
Umidità 42%
Piovosità 0.00 in
Spessore del manto nevoso Non disponibile.
Raggi UV 0.0 fuori da 12
Polline 9.40 fuori da 12
Qualità dell'aria Non disponibile.
Flu Activity Regional
METAR KPDX 271753Z 27007KT 10SM FEW012 FEW250 17/12 A3020 RMK AO2 SLP225 T01670117 10167 20106 58023

More Conditions Fewer Conditions

Pressione 30.20 in
Visibilità 10.0 miglia
Nuvole Alcuni 1200 ft
Alcuni 25000 ft
Punto di rugiada 45 °F
Umidità 42%
Piovosità 0.00 in
Spessore del manto nevoso Non disponibile.
Raggi UV 0.0 fuori da 12
Polline 9.40 fuori da 12
Qualità dell'aria Non disponibile.
Flu Activity Regional
METAR KPDX 271753Z 27007KT 10SM FEW012 FEW250 17/12 A3020 RMK AO2 SLP225 T01670117 10167 20106 58023

More Conditions Fewer Conditions

10-Day Weather Forecast

Almanac

Astronomia

Apr. 27, 2015 Alba Tramonto
Ora attuale
Crepuscolo civile
Crepuscolo nautico
Crepuscolo astronomico
Luna
Estensione della luce visibile
Lunghezza del giorno
Tomorrow will be .
, % of the Moon is Illuminated

Gli estremi di oggi

State Highs State Lows

Community

WunderPhotos

Upload Photos

1,817,395 foto caricate!

WunderBlogs® & News

Nearby

Qualità dell'aria

  Qualità dell'aria Indice AQ Inquinante
Not available.

Profondità neve

Stazione Profondità Altitudine

Attività sismica

Città  Distanza Mag. Data & Ora
Minimo Magnitudo Mostrato è 2.5.

Temperature delle acque costiere

Località Temperatura

Stations

Stazioni meteo nelle vicinanze

Ubicazione della stazione Temp. Raffreddamento del vento Punto di rugiada Umidità Vento Precip. Alt. Aggiornato Tipo